Airfield :
LOGIN :

Register | Disclaimer

   EN    FR    IT 

 










Legend :    VFR   Marginal VFR   IFR   Intensive IFR   Very Intensive IFR
Visi :
Ceiling :
>= 8 km
>= 3000ft
5 to 8 km
1000 to 3000 ft
1500m to 5 km
500 to 1000 ft
800 to 1500m
200 to 500 ft
< 800m
< 200 ft
Symbols :   Thunderstorms  Fog  Heavy snow  Heavy precipitations  Wind > 20 kt
SIGMETs :     Misc.  Thunderstorms  Icing  Turbulence  Mountain Waves  Volcanic Ashes







- Airport Elevation : 297 ft
- IATA code : UIP
- Download approach charts


LFRQ - Quimper Pluguffan

CURRENT METAR :
  • 152300Z AUTO 34003KT 9999 FEW004 OVC027 12/11 Q1013

EXPIRED METARs :
  • 152230Z AUTO 01002KT 9999 FEW004 OVC025 12/12 Q1013
  • 152200Z AUTO 34004KT 320V020 9999 OVC004 12/12 Q1013
  • 152130Z AUTO 35006KT 9999 OVC003 12/11 Q1013
  • 152100Z AUTO 35004KT 9999 OVC004 12/12 Q1013 TEMPO 3000 DZ
  • 152030Z AUTO 36005KT 330V030 9999 OVC005 12/11 Q1013 TEMPO 3000 DZ

TAF TAF LFRQ
Valid from the 15 at 18:00 until the 16 at 18:00 UTC


151700Z 1518/1618 34007KT 9999 SCT011 OVC039
TEMPO 1518/1609 3000 DZ OVC004
BECMG 1609/1612 7000 BKN011
BECMG 1612/1615 BKN015
BECMG 1615/1618 9999 NSC
No reported NOTAMs for that airfield.



MET'MAP, your aeronautical weather chart ! - Copyright ORBIFLY December 2007 - Disclaimer

ORBIFLY MET'MAP TEAM :

Programming & Development : Alexandra Zaïnal
Concept & Development : Baudouin d'Aumeries
Co-Development & Prog : Marc-Olivier Méhu
Technical & hardware support : Manuel Goepfert

Contact : metmap@orbifly.com




SOURCES & CREDITS :

   NOAA